createdAt,value
2019-02-19T00:00:32.057Z,7.30
2019-02-19T00:03:03.710Z,9.13
2019-02-19T00:05:35.309Z,7.30
2019-02-19T00:08:07.074Z,7.50
2019-02-19T00:10:39.272Z,8.03
2019-02-19T00:13:12.344Z,6.90
2019-02-19T00:15:44.091Z,8.10
2019-02-19T00:18:15.898Z,8.67
2019-02-19T00:20:49.594Z,7.77
2019-02-19T00:23:21.178Z,8.57
2019-02-19T00:25:53.074Z,7.33
2019-02-19T00:28:24.703Z,7.77
2019-02-19T00:30:56.488Z,8.20
2019-02-19T00:33:35.548Z,8.37
2019-02-19T00:36:07.533Z,7.60
2019-02-19T00:38:41.517Z,8.33
2019-02-19T00:41:13.574Z,8.40
2019-02-19T00:43:45.206Z,8.27
2019-02-19T00:46:18.393Z,8.07
2019-02-19T00:48:50.139Z,8.17
2019-02-19T00:51:21.785Z,7.47
2019-02-19T00:53:55.086Z,8.40
2019-02-19T00:56:28.172Z,8.20
2019-02-19T00:59:04.410Z,8.30
2019-02-19T01:01:39.927Z,7.43
2019-02-19T01:04:12.108Z,7.00
2019-02-19T01:06:43.811Z,7.60
2019-02-19T01:09:15.574Z,7.10
2019-02-19T01:11:47.601Z,8.60
2019-02-19T01:14:19.455Z,7.70
2019-02-19T01:16:51.535Z,8.70
2019-02-19T01:19:24.774Z,7.07
2019-02-19T01:21:57.575Z,6.90
2019-02-19T01:24:29.387Z,8.13
2019-02-19T01:27:02.825Z,8.20
2019-02-19T01:29:34.455Z,7.20
2019-02-19T01:32:06.099Z,7.40
2019-02-19T01:34:37.866Z,7.03
2019-02-19T01:37:10.794Z,7.23
2019-02-19T01:39:42.671Z,7.73
2019-02-19T01:42:14.767Z,7.90
2019-02-19T01:44:46.553Z,7.33
2019-02-19T01:47:18.200Z,7.33
2019-02-19T01:52:20.677Z,7.80
2019-02-19T01:54:52.561Z,7.80
2019-02-19T01:57:24.174Z,7.20
2019-02-19T01:59:56.092Z,7.00
2019-02-19T02:02:28.273Z,6.93
2019-02-19T02:05:00.241Z,7.57
2019-02-19T02:07:31.825Z,7.87
2019-02-19T02:10:03.826Z,7.57
2019-02-19T02:12:39.704Z,7.90
2019-02-19T02:15:12.595Z,7.57
2019-02-19T02:17:44.516Z,6.80
2019-02-19T02:20:16.602Z,7.40
2019-02-19T02:22:49.770Z,8.50
2019-02-19T02:25:21.771Z,8.40
2019-02-19T02:27:54.566Z,8.27
2019-02-19T02:30:26.293Z,8.00
2019-02-19T02:32:58.027Z,7.80
2019-02-19T02:35:29.748Z,8.17
2019-02-19T02:38:01.337Z,7.20
2019-02-19T02:40:33.025Z,9.00
2019-02-19T02:43:04.616Z,8.60
2019-02-19T02:45:36.529Z,8.67
2019-02-19T02:48:08.093Z,9.33
2019-02-19T02:50:39.810Z,9.43
2019-02-19T02:53:11.417Z,9.27
2019-02-19T02:55:43.464Z,8.40
2019-02-19T02:58:15.206Z,9.10
2019-02-19T03:00:46.901Z,8.83
2019-02-19T03:03:18.860Z,8.30
2019-02-19T03:06:11.422Z,8.17
2019-02-19T03:08:43.048Z,8.47
2019-02-19T03:11:14.743Z,8.63
2019-02-19T03:13:46.325Z,8.10
2019-02-19T03:16:18.025Z,8.13
2019-02-19T03:18:49.789Z,8.20
2019-02-19T03:21:21.567Z,7.27
2019-02-19T03:23:53.492Z,7.87
2019-02-19T03:26:25.462Z,8.23
2019-02-19T03:28:57.148Z,7.03
2019-02-19T03:31:28.764Z,7.20
2019-02-19T03:34:00.370Z,7.37
2019-02-19T03:36:32.294Z,6.80
2019-02-19T03:39:11.105Z,6.60
2019-02-19T03:41:42.690Z,6.50
2019-02-19T03:44:14.513Z,6.83
2019-02-19T03:46:46.156Z,7.87
2019-02-19T03:49:17.936Z,7.17
2019-02-19T03:51:49.581Z,7.17
2019-02-19T03:54:21.313Z,7.17
2019-02-19T03:56:52.915Z,6.77
2019-02-19T03:59:24.675Z,6.87
2019-02-19T04:01:56.294Z,6.17
2019-02-19T04:04:27.934Z,6.87
2019-02-19T04:06:59.523Z,6.43
2019-02-19T04:09:31.307Z,7.30
2019-02-19T04:12:02.902Z,6.23
2019-02-19T04:14:35.819Z,5.60
2019-02-19T04:17:07.538Z,7.27
2019-02-19T04:19:39.443Z,6.63
2019-02-19T04:22:11.027Z,6.43
2019-02-19T04:24:43.099Z,6.03
2019-02-19T04:27:14.746Z,7.23
2019-02-19T04:29:46.572Z,5.83
2019-02-19T04:32:18.209Z,6.77
2019-02-19T04:34:49.958Z,5.77
2019-02-19T04:37:21.714Z,5.87
2019-02-19T04:39:53.413Z,6.90
2019-02-19T04:42:25.243Z,5.83
2019-02-19T04:44:56.950Z,6.73
2019-02-19T04:47:28.673Z,6.50
2019-02-19T04:50:00.328Z,6.40
2019-02-19T04:52:31.976Z,6.30
2019-02-19T04:55:03.623Z,6.37
2019-02-19T04:57:35.348Z,6.63
2019-02-19T05:00:09.686Z,6.83
2019-02-19T05:02:41.321Z,7.20
2019-02-19T05:05:13.125Z,7.00
2019-02-19T05:07:44.851Z,6.40
2019-02-19T05:10:16.485Z,5.90
2019-02-19T05:12:48.169Z,5.70
2019-02-19T05:15:19.974Z,6.73
2019-02-19T05:17:51.616Z,6.80
2019-02-19T05:20:23.331Z,7.07
2019-02-19T05:22:55.021Z,6.90
2019-02-19T05:25:26.665Z,7.27
2019-02-19T05:27:58.326Z,6.23
2019-02-19T05:30:30.041Z,7.40
2019-02-19T05:33:01.657Z,6.17
2019-02-19T05:35:33.264Z,6.23
2019-02-19T05:38:04.900Z,6.60
2019-02-19T05:40:36.619Z,6.80
2019-02-19T05:43:08.306Z,6.97
2019-02-19T05:45:39.935Z,7.00
2019-02-19T05:48:11.772Z,6.30
2019-02-19T05:50:43.374Z,6.20
2019-02-19T05:53:15.119Z,6.20
2019-02-19T05:55:46.833Z,6.47
2019-02-19T05:58:18.501Z,7.07
2019-02-19T06:00:50.123Z,9.23
2019-02-19T06:03:24.115Z,8.93
2019-02-19T06:05:55.519Z,7.73
2019-02-19T06:08:27.216Z,8.07
2019-02-19T06:10:58.830Z,6.40
2019-02-19T06:13:30.422Z,5.80
2019-02-19T06:16:02.054Z,6.40
2019-02-19T06:18:34.315Z,6.23
2019-02-19T06:21:06.155Z,6.83
2019-02-19T06:23:37.851Z,7.47
2019-02-19T06:26:09.488Z,9.47
2019-02-19T06:28:42.465Z,12.67
2019-02-19T06:31:14.174Z,7.83
2019-02-19T06:33:46.038Z,7.10
2019-02-19T06:36:17.665Z,6.97
2019-02-19T06:38:49.337Z,7.10
2019-02-19T06:41:22.736Z,6.87
2019-02-19T06:43:54.425Z,6.67
2019-02-19T06:46:26.086Z,6.97
2019-02-19T06:48:57.691Z,7.40
2019-02-19T06:51:29.552Z,6.30
2019-02-19T06:54:01.184Z,7.00
2019-02-19T06:56:32.801Z,7.97
2019-02-19T06:59:04.486Z,6.90
2019-02-19T07:02:02.572Z,6.37
2019-02-19T07:04:38.485Z,7.67
2019-02-19T07:07:10.312Z,9.50
2019-02-19T07:09:42.083Z,9.10
2019-02-19T07:12:13.726Z,8.73
2019-02-19T07:14:45.618Z,9.07
2019-02-19T07:17:17.329Z,7.40
2019-02-19T07:19:49.276Z,8.03
2019-02-19T07:22:20.883Z,7.17
2019-02-19T07:24:52.843Z,5.93
2019-02-19T07:27:24.682Z,6.40
2019-02-19T07:29:56.712Z,7.03
2019-02-19T07:32:28.373Z,7.20
2019-02-19T07:35:00.016Z,7.00
2019-02-19T07:37:31.710Z,6.80
2019-02-19T07:40:03.324Z,6.97
2019-02-19T07:42:35.173Z,6.83
2019-02-19T07:45:07.399Z,6.70
2019-02-19T07:47:39.046Z,7.23
2019-02-19T07:50:11.099Z,7.00
2019-02-19T07:52:42.826Z,6.50
2019-02-19T07:55:14.452Z,7.00
2019-02-19T07:57:46.456Z,6.97
2019-02-19T08:00:18.222Z,7.67
2019-02-19T08:02:51.479Z,8.23
2019-02-19T08:05:23.147Z,8.43
2019-02-19T08:07:54.874Z,7.40
2019-02-19T08:10:26.517Z,8.47
2019-02-19T08:12:58.225Z,7.20
2019-02-19T08:15:30.037Z,6.10
2019-02-19T08:18:01.723Z,6.97
2019-02-19T08:20:33.610Z,7.40
2019-02-19T08:23:06.463Z,7.50
2019-02-19T08:25:38.140Z,7.40
2019-02-19T08:28:10.115Z,6.47
2019-02-19T08:30:41.767Z,6.80
2019-02-19T08:33:13.691Z,7.67
2019-02-19T08:35:45.336Z,6.17
2019-02-19T08:38:17.105Z,6.50
2019-02-19T08:40:48.773Z,6.70
2019-02-19T08:43:20.722Z,6.37
2019-02-19T08:45:52.380Z,6.90
2019-02-19T08:48:24.242Z,7.40
2019-02-19T08:50:55.932Z,8.13
2019-02-19T08:53:27.563Z,7.30
2019-02-19T08:55:59.286Z,6.90
2019-02-19T08:58:31.035Z,6.67
2019-02-19T09:01:04.140Z,6.50
2019-02-19T09:03:36.021Z,7.07
2019-02-19T09:06:07.779Z,7.23
2019-02-19T09:08:39.486Z,7.10
2019-02-19T09:11:11.110Z,8.50
2019-02-19T09:13:42.795Z,6.13
2019-02-19T09:16:14.479Z,6.50
2019-02-19T09:18:46.259Z,6.20
2019-02-19T09:21:18.077Z,5.33
2019-02-19T09:23:49.794Z,5.63
2019-02-19T09:26:21.543Z,6.40
2019-02-19T09:28:53.235Z,5.97
2019-02-19T09:31:24.910Z,5.50
2019-02-19T09:33:56.539Z,6.13
2019-02-19T09:36:28.281Z,5.47
2019-02-19T09:39:00.153Z,5.63
2019-02-19T09:41:31.790Z,5.77
2019-02-19T09:44:03.881Z,5.20
2019-02-19T09:46:35.971Z,4.60
2019-02-19T09:49:07.684Z,4.60
2019-02-19T09:51:39.482Z,5.00
2019-02-19T09:54:11.370Z,7.03
2019-02-19T09:56:43.035Z,6.20
2019-02-19T09:59:14.730Z,5.40
2019-02-19T10:01:50.462Z,5.67
2019-02-19T10:06:48.712Z,5.00
2019-02-19T10:09:23.832Z,4.40
2019-02-19T10:11:56.954Z,4.67
2019-02-19T10:14:26.300Z,4.57
2019-02-19T10:17:03.754Z,4.17
2019-02-19T10:19:36.719Z,4.93
2019-02-19T10:22:08.461Z,4.13
2019-02-19T10:24:41.218Z,4.40
2019-02-19T10:27:12.881Z,5.23
2019-02-19T10:29:44.835Z,5.20
2019-02-19T10:32:16.610Z,5.00
2019-02-19T10:34:48.540Z,5.20
2019-02-19T10:37:20.196Z,5.07
2019-02-19T10:39:52.051Z,5.03
2019-02-19T10:42:24.070Z,4.87
2019-02-19T10:44:55.761Z,5.57
2019-02-19T10:47:27.546Z,5.00
2019-02-19T10:50:00.763Z,5.50
2019-02-19T10:52:32.771Z,5.70
2019-02-19T10:55:04.775Z,5.20
2019-02-19T10:57:36.565Z,4.77
2019-02-19T11:00:12.625Z,5.50
2019-02-19T11:02:44.298Z,5.10
2019-02-19T11:05:16.197Z,5.47
2019-02-19T11:07:47.955Z,5.23
2019-02-19T11:10:19.789Z,5.10
2019-02-19T11:12:51.778Z,5.53
2019-02-19T11:15:23.666Z,6.40
2019-02-19T11:17:55.336Z,6.17
2019-02-19T11:20:28.900Z,6.50
2019-02-19T11:23:00.818Z,5.37
2019-02-19T11:25:32.551Z,6.93
2019-02-19T11:28:04.284Z,5.60
2019-02-19T11:30:37.051Z,5.17
2019-02-19T11:33:08.709Z,4.80
2019-02-19T11:35:40.410Z,5.70
2019-02-19T11:38:12.099Z,6.50
2019-02-19T11:40:44.325Z,5.40
2019-02-19T11:43:16.431Z,5.80
2019-02-19T11:45:48.120Z,5.43
2019-02-19T11:48:19.758Z,5.00
2019-02-19T11:50:51.383Z,6.27
2019-02-19T11:53:23.177Z,6.10
2019-02-19T11:55:54.810Z,6.00
2019-02-19T11:58:26.917Z,6.63
2019-02-19T12:00:58.952Z,5.63
2019-02-19T12:03:32.148Z,5.70
2019-02-19T12:06:03.835Z,6.30
2019-02-19T12:08:38.960Z,6.10
2019-02-19T12:11:09.079Z,6.20
2019-02-19T12:13:40.322Z,6.57
2019-02-19T12:16:09.640Z,6.73
2019-02-19T12:18:46.238Z,6.43
2019-02-19T12:21:15.079Z,6.30
2019-02-19T12:23:47.026Z,5.60
2019-02-19T12:26:18.878Z,6.00
2019-02-19T12:28:50.742Z,5.80
2019-02-19T12:31:22.473Z,6.07
2019-02-19T12:33:54.447Z,6.63
2019-02-19T12:36:26.684Z,6.27
2019-02-19T12:39:00.572Z,6.73
2019-02-19T12:41:33.939Z,5.40
2019-02-19T12:44:05.792Z,6.37
2019-02-19T12:46:37.701Z,7.10
2019-02-19T12:49:09.384Z,6.43
2019-02-19T12:51:41.092Z,5.53
2019-02-19T12:54:13.109Z,5.80
2019-02-19T12:56:44.896Z,6.27
2019-02-19T12:59:16.601Z,7.00
2019-02-19T13:01:49.072Z,5.93
2019-02-19T13:04:22.616Z,5.10
2019-02-19T13:06:54.310Z,5.70
2019-02-19T13:09:26.461Z,5.70
2019-02-19T13:11:59.433Z,5.30
2019-02-19T13:14:31.077Z,6.13
2019-02-19T13:17:04.390Z,5.10
2019-02-19T13:19:37.723Z,5.53
2019-02-19T13:22:09.356Z,6.10
2019-02-19T13:24:41.114Z,4.93
2019-02-19T13:27:14.070Z,6.03
2019-02-19T13:29:45.905Z,5.17
2019-02-19T13:32:17.937Z,5.70
2019-02-19T13:34:49.652Z,5.90
2019-02-19T13:37:21.316Z,5.73
2019-02-19T13:39:53.485Z,5.63
2019-02-19T13:42:25.223Z,6.50
2019-02-19T13:44:56.802Z,5.80
2019-02-19T13:47:28.580Z,5.60
2019-02-19T13:50:00.238Z,4.37
2019-02-19T13:52:46.581Z,5.87
2019-02-19T13:55:24.401Z,5.70
2019-02-19T13:57:57.439Z,7.33
2019-02-19T14:00:30.363Z,5.30
2019-02-19T14:03:02.145Z,4.50
2019-02-19T14:05:33.797Z,5.10
2019-02-19T14:08:14.023Z,6.40
2019-02-19T14:10:39.177Z,5.73
2019-02-19T14:13:10.879Z,6.17
2019-02-19T14:16:13.488Z,5.37
2019-02-19T14:18:50.873Z,5.53
2019-02-19T14:21:53.965Z,6.43
2019-02-19T14:24:42.898Z,5.73
2019-02-19T14:27:32.132Z,5.70
2019-02-19T14:30:32.171Z,6.13
2019-02-19T14:33:31.027Z,6.33
2019-02-19T14:36:24.521Z,5.10
2019-02-19T14:39:24.395Z,5.20
2019-02-19T14:42:17.972Z,6.17
2019-02-19T14:45:11.351Z,5.60
2019-02-19T14:47:55.274Z,5.77
2019-02-19T14:50:44.686Z,5.43
2019-02-19T14:53:31.724Z,6.13
2019-02-19T14:56:37.815Z,5.90
2019-02-19T14:59:35.505Z,5.20
2019-02-19T15:02:24.718Z,6.10
2019-02-19T15:05:08.463Z,6.10
2019-02-19T15:07:57.420Z,5.97
2019-02-19T15:10:50.903Z,5.70
2019-02-19T15:13:39.108Z,5.90
2019-02-19T15:16:33.516Z,5.77
2019-02-19T15:19:22.112Z,6.03
2019-02-19T15:22:12.158Z,5.83
2019-02-19T15:24:54.494Z,6.07
2019-02-19T15:27:33.305Z,5.37
2019-02-19T15:30:24.256Z,5.30
2019-02-19T15:33:23.966Z,5.50
2019-02-19T15:36:13.251Z,4.90
2019-02-19T15:39:02.498Z,5.10
2019-02-19T15:41:44.011Z,6.07
2019-02-19T15:44:32.648Z,7.00
2019-02-19T15:47:21.681Z,6.13
2019-02-19T15:50:12.227Z,5.90
2019-02-19T15:53:00.903Z,6.90
2019-02-19T15:55:50.286Z,6.27
2019-02-19T15:58:48.185Z,6.30
2019-02-19T16:01:30.602Z,6.27
2019-02-19T16:04:16.413Z,6.27
2019-02-19T16:07:07.631Z,6.70
2019-02-19T16:10:16.476Z,6.60
2019-02-19T16:12:59.792Z,6.40
2019-02-19T16:15:57.761Z,6.10
2019-02-19T16:18:38.153Z,7.10
2019-02-19T16:21:22.526Z,7.20
2019-02-19T16:24:02.136Z,7.93
2019-02-19T16:26:52.792Z,6.27
2019-02-19T16:29:43.409Z,6.00
2019-02-19T16:32:34.594Z,6.03
2019-02-19T16:35:23.617Z,7.80
2019-02-19T16:38:08.466Z,6.97
2019-02-19T16:41:02.050Z,8.20
2019-02-19T16:44:01.979Z,8.93
2019-02-19T16:46:42.968Z,8.90
2019-02-19T16:49:24.800Z,8.57
2019-02-19T16:52:09.461Z,8.60
2019-02-19T16:54:50.066Z,7.90
2019-02-19T16:57:43.343Z,7.50
2019-02-19T17:00:26.050Z,8.30
2019-02-19T17:03:16.575Z,8.20
2019-02-19T17:06:13.638Z,9.07
2019-02-19T17:08:54.167Z,9.77
2019-02-19T17:11:47.505Z,8.60
2019-02-19T17:14:38.222Z,8.70
2019-02-19T17:17:31.788Z,8.27
2019-02-19T17:20:29.369Z,9.13
2019-02-19T17:23:11.724Z,8.73
2019-02-19T17:25:53.484Z,9.63
2019-02-19T17:28:41.589Z,9.87
2019-02-19T17:31:25.848Z,9.53
2019-02-19T17:34:08.899Z,10.10
2019-02-19T17:36:50.728Z,9.50
2019-02-19T17:39:41.232Z,9.67
2019-02-19T17:42:34.965Z,9.83
2019-02-19T17:45:28.050Z,9.63
2019-02-19T17:48:21.545Z,9.87
2019-02-19T17:51:11.201Z,10.30
2019-02-19T17:53:50.684Z,10.50
2019-02-19T17:56:43.033Z,10.30
2019-02-19T17:59:43.736Z,11.67
2019-02-19T18:02:28.491Z,9.57
2019-02-19T18:05:37.757Z,10.10
2019-02-19T18:08:17.321Z,9.30
2019-02-19T18:11:07.098Z,9.00
2019-02-19T18:14:00.423Z,9.13
2019-02-19T18:16:41.496Z,8.53
2019-02-19T18:19:13.315Z,8.70
2019-02-19T18:21:46.388Z,9.27
2019-02-19T18:24:18.061Z,9.10
2019-02-19T18:26:50.055Z,9.63
2019-02-19T18:29:21.844Z,9.47
2019-02-19T18:31:53.579Z,9.30
2019-02-19T18:34:25.871Z,9.60
2019-02-19T18:36:57.730Z,10.27
2019-02-19T18:39:29.681Z,8.27
2019-02-19T18:42:01.540Z,10.27
2019-02-19T18:44:33.489Z,10.60
2019-02-19T18:47:05.358Z,11.40
2019-02-19T18:49:37.194Z,10.57
2019-02-19T18:52:09.242Z,10.43
2019-02-19T18:54:41.086Z,10.77
2019-02-19T18:57:13.182Z,11.80
2019-02-19T18:59:45.058Z,10.67
2019-02-19T19:02:16.977Z,10.67
2019-02-19T19:04:50.406Z,9.93
2019-02-19T19:07:23.163Z,9.90
2019-02-19T19:09:54.992Z,9.33
2019-02-19T19:12:27.186Z,9.50
2019-02-19T19:14:59.738Z,10.20
2019-02-19T19:17:31.579Z,9.20
2019-02-19T19:20:03.520Z,9.50
2019-02-19T19:22:35.276Z,10.83
2019-02-19T19:25:07.668Z,11.17
2019-02-19T19:27:39.431Z,10.57
2019-02-19T19:30:12.710Z,9.73
2019-02-19T19:32:44.558Z,10.43
2019-02-19T19:35:16.552Z,9.30
2019-02-19T19:37:48.297Z,10.10
2019-02-19T19:40:20.350Z,10.53
2019-02-19T19:42:52.145Z,15.93
2019-02-19T19:45:23.902Z,14.80
2019-02-19T19:47:55.655Z,11.97
2019-02-19T19:50:29.231Z,11.10
2019-02-19T19:53:00.982Z,10.27
2019-02-19T19:55:33.420Z,8.93
2019-02-19T19:58:05.179Z,10.33
2019-02-19T20:00:36.987Z,10.47
2019-02-19T20:03:08.937Z,10.57
2019-02-19T20:05:41.180Z,10.80
2019-02-19T20:08:13.239Z,12.47
2019-02-19T20:10:45.322Z,10.47
2019-02-19T20:13:17.471Z,11.77
2019-02-19T20:15:49.855Z,13.07
2019-02-19T20:18:21.887Z,11.67
2019-02-19T20:20:56.893Z,12.50
2019-02-19T20:23:28.941Z,11.87
2019-02-19T20:26:00.778Z,12.67
2019-02-19T20:28:32.675Z,12.07
2019-02-19T20:31:04.459Z,13.87
2019-02-19T20:33:45.744Z,13.30
2019-02-19T20:36:29.787Z,14.57
2019-02-19T20:39:02.363Z,17.37
2019-02-19T20:41:35.332Z,16.63
2019-02-19T20:44:07.313Z,17.37
2019-02-19T20:46:39.116Z,16.20
2019-02-19T20:49:10.969Z,15.50
2019-02-19T20:51:43.209Z,13.47
2019-02-19T20:54:15.233Z,11.33
2019-02-19T20:56:46.973Z,12.57
2019-02-19T20:59:20.725Z,12.40
2019-02-19T21:01:52.968Z,13.07
2019-02-19T21:04:24.806Z,13.67
2019-02-19T21:06:56.529Z,13.63
2019-02-19T21:09:28.362Z,13.73
2019-02-19T21:12:00.122Z,18.37
2019-02-19T21:14:32.650Z,17.27
2019-02-19T21:17:04.842Z,15.10
2019-02-19T21:19:37.296Z,13.87
2019-02-19T21:22:09.036Z,12.90
2019-02-19T21:24:40.846Z,15.50
2019-02-19T21:27:12.590Z,14.43
2019-02-19T21:29:44.374Z,13.20
2019-02-19T21:32:16.556Z,13.57
2019-02-19T21:34:48.478Z,12.00
2019-02-19T21:37:20.139Z,12.40
2019-02-19T21:39:52.072Z,11.73
2019-02-19T21:42:24.098Z,13.07
2019-02-19T21:44:55.864Z,12.37
2019-02-19T21:47:27.800Z,12.80
2019-02-19T21:49:59.590Z,12.93
2019-02-19T21:52:31.307Z,12.73
2019-02-19T22:05:12.169Z,12.93
2019-02-19T22:07:45.499Z,12.40
2019-02-19T22:10:17.421Z,11.10
2019-02-19T22:12:51.015Z,11.20
2019-02-19T22:15:22.808Z,12.20
2019-02-19T22:17:54.882Z,11.73
2019-02-19T22:20:39.726Z,10.53
2019-02-19T22:23:11.400Z,12.00
2019-02-19T22:25:43.199Z,13.87
2019-02-19T22:28:14.900Z,12.70
2019-02-19T22:30:47.518Z,12.20
2019-02-19T22:33:21.159Z,13.67
2019-02-19T22:35:53.216Z,12.87
2019-02-19T22:38:28.353Z,12.27
2019-02-19T22:41:00.001Z,12.70
2019-02-19T22:43:32.103Z,12.20
2019-02-19T22:46:03.719Z,11.40
2019-02-19T22:48:35.533Z,11.80
2019-02-19T22:51:07.169Z,11.67
2019-02-19T22:53:57.849Z,9.97
2019-02-19T22:56:36.323Z,10.23
2019-02-19T22:59:09.422Z,10.30
2019-02-19T23:01:46.495Z,10.50
2019-02-19T23:04:18.150Z,11.30
2019-02-19T23:06:49.764Z,11.00
2019-02-19T23:09:22.048Z,10.40
2019-02-19T23:11:53.816Z,9.60
2019-02-19T23:14:25.508Z,9.43
2019-02-19T23:16:57.242Z,9.23
2019-02-19T23:19:28.863Z,10.13
2019-02-19T23:22:12.207Z,10.80
2019-02-19T23:24:44.375Z,10.33
2019-02-19T23:27:16.089Z,10.73
2019-02-19T23:29:47.867Z,13.70
2019-02-19T23:32:19.567Z,12.90
2019-02-19T23:35:10.055Z,14.93
2019-02-19T23:37:42.775Z,19.30
2019-02-19T23:40:15.047Z,14.80
2019-02-19T23:42:47.983Z,11.07
2019-02-19T23:45:19.621Z,12.43
2019-02-19T23:47:51.276Z,12.20
2019-02-19T23:50:22.898Z,10.37
2019-02-19T23:52:54.575Z,9.60
2019-02-19T23:55:26.528Z,10.70
2019-02-19T23:57:58.116Z,10.20
